sensor_id;sensor_type;location;lat;lon;timestamp;P1;durP1;ratioP1;P2;durP2;ratioP2
4724;SDS011;2376;53.544;10.226;2023-06-24T00:01:27;10.97;;;9.90;;
4724;SDS011;2376;53.544;10.226;2023-06-24T00:03:56;10.77;;;9.87;;
4724;SDS011;2376;53.544;10.226;2023-06-24T00:06:23;11.03;;;9.93;;
4724;SDS011;2376;53.544;10.226;2023-06-24T00:08:52;11.07;;;10.00;;
4724;SDS011;2376;53.544;10.226;2023-06-24T00:11:25;10.60;;;9.50;;
4724;SDS011;2376;53.544;10.226;2023-06-24T00:13:52;12.07;;;10.67;;
4724;SDS011;2376;53.544;10.226;2023-06-24T00:16:19;15.37;;;9.90;;
4724;SDS011;2376;53.544;10.226;2023-06-24T00:18:52;12.23;;;11.10;;
4724;SDS011;2376;53.544;10.226;2023-06-24T00:21:19;12.43;;;10.00;;
4724;SDS011;2376;53.544;10.226;2023-06-24T00:23:47;11.53;;;10.33;;
4724;SDS011;2376;53.544;10.226;2023-06-24T00:26:15;10.37;;;9.47;;
4724;SDS011;2376;53.544;10.226;2023-06-24T00:28:43;15.53;;;10.10;;
4724;SDS011;2376;53.544;10.226;2023-06-24T00:31:09;12.17;;;11.00;;
4724;SDS011;2376;53.544;10.226;2023-06-24T00:33:36;13.70;;;11.27;;
4724;SDS011;2376;53.544;10.226;2023-06-24T00:36:03;13.20;;;11.80;;
4724;SDS011;2376;53.544;10.226;2023-06-24T00:38:31;11.73;;;10.60;;
4724;SDS011;2376;53.544;10.226;2023-06-24T00:40:58;12.87;;;11.33;;
4724;SDS011;2376;53.544;10.226;2023-06-24T00:43:26;12.27;;;11.17;;
4724;SDS011;2376;53.544;10.226;2023-06-24T00:45:54;18.00;;;12.60;;
4724;SDS011;2376;53.544;10.226;2023-06-24T00:48:21;15.63;;;11.80;;
4724;SDS011;2376;53.544;10.226;2023-06-24T00:50:49;14.23;;;12.00;;
4724;SDS011;2376;53.544;10.226;2023-06-24T00:53:16;12.20;;;11.00;;
4724;SDS011;2376;53.544;10.226;2023-06-24T00:55:43;13.67;;;12.37;;
4724;SDS011;2376;53.544;10.226;2023-06-24T00:58:11;15.60;;;10.57;;
4724;SDS011;2376;53.544;10.226;2023-06-24T01:00:42;12.70;;;11.47;;
4724;SDS011;2376;53.544;10.226;2023-06-24T01:03:11;12.63;;;11.33;;
4724;SDS011;2376;53.544;10.226;2023-06-24T01:05:39;18.27;;;13.30;;
4724;SDS011;2376;53.544;10.226;2023-06-24T01:08:06;14.80;;;12.43;;
4724;SDS011;2376;53.544;10.226;2023-06-24T01:10:34;12.40;;;11.20;;
4724;SDS011;2376;53.544;10.226;2023-06-24T01:13:01;13.47;;;12.07;;
4724;SDS011;2376;53.544;10.226;2023-06-24T01:15:28;18.00;;;12.70;;
4724;SDS011;2376;53.544;10.226;2023-06-24T01:17:56;14.33;;;12.83;;
4724;SDS011;2376;53.544;10.226;2023-06-24T01:20:29;15.63;;;14.20;;
4724;SDS011;2376;53.544;10.226;2023-06-24T01:26:14;14.83;;;13.23;;
4724;SDS011;2376;53.544;10.226;2023-06-24T01:29:09;14.33;;;12.17;;
4724;SDS011;2376;53.544;10.226;2023-06-24T01:32:05;13.70;;;11.70;;
4724;SDS011;2376;53.544;10.226;2023-06-24T01:34:36;13.00;;;11.73;;
4724;SDS011;2376;53.544;10.226;2023-06-24T01:37:12;12.63;;;11.33;;
4724;SDS011;2376;53.544;10.226;2023-06-24T01:39:45;14.60;;;13.20;;
4724;SDS011;2376;53.544;10.226;2023-06-24T01:42:15;17.90;;;13.73;;
4724;SDS011;2376;53.544;10.226;2023-06-24T01:44:45;14.43;;;12.60;;
4724;SDS011;2376;53.544;10.226;2023-06-24T01:47:15;15.23;;;13.90;;
4724;SDS011;2376;53.544;10.226;2023-06-24T01:49:46;15.50;;;13.40;;
4724;SDS011;2376;53.544;10.226;2023-06-24T01:52:13;14.20;;;12.53;;
4724;SDS011;2376;53.544;10.226;2023-06-24T01:54:41;13.90;;;12.70;;
4724;SDS011;2376;53.544;10.226;2023-06-24T01:57:08;15.73;;;14.07;;
4724;SDS011;2376;53.544;10.226;2023-06-24T01:59:39;14.30;;;12.90;;
4724;SDS011;2376;53.544;10.226;2023-06-24T02:02:07;14.40;;;12.90;;
4724;SDS011;2376;53.544;10.226;2023-06-24T02:04:36;16.43;;;13.73;;
4724;SDS011;2376;53.544;10.226;2023-06-24T02:07:05;13.63;;;12.23;;
4724;SDS011;2376;53.544;10.226;2023-06-24T02:09:34;13.90;;;12.20;;
4724;SDS011;2376;53.544;10.226;2023-06-24T02:12:02;13.47;;;11.47;;
4724;SDS011;2376;53.544;10.226;2023-06-24T02:14:30;17.93;;;11.37;;
4724;SDS011;2376;53.544;10.226;2023-06-24T02:16:59;13.13;;;11.93;;
4724;SDS011;2376;53.544;10.226;2023-06-24T02:19:27;15.70;;;13.53;;
4724;SDS011;2376;53.544;10.226;2023-06-24T02:21:57;13.20;;;12.00;;
4724;SDS011;2376;53.544;10.226;2023-06-24T02:24:25;13.90;;;12.60;;
4724;SDS011;2376;53.544;10.226;2023-06-24T02:26:53;13.30;;;11.90;;
4724;SDS011;2376;53.544;10.226;2023-06-24T02:29:22;15.07;;;13.30;;
4724;SDS011;2376;53.544;10.226;2023-06-24T02:31:51;12.17;;;11.07;;
4724;SDS011;2376;53.544;10.226;2023-06-24T02:34:18;12.60;;;11.27;;
4724;SDS011;2376;53.544;10.226;2023-06-24T02:36:45;13.87;;;12.50;;
4724;SDS011;2376;53.544;10.226;2023-06-24T02:39:13;12.63;;;11.33;;
4724;SDS011;2376;53.544;10.226;2023-06-24T02:41:40;12.43;;;11.20;;
4724;SDS011;2376;53.544;10.226;2023-06-24T02:44:07;12.43;;;11.23;;
4724;SDS011;2376;53.544;10.226;2023-06-24T02:46:34;13.30;;;11.53;;
4724;SDS011;2376;53.544;10.226;2023-06-24T02:49:02;12.73;;;11.53;;
4724;SDS011;2376;53.544;10.226;2023-06-24T02:51:30;13.30;;;12.00;;
4724;SDS011;2376;53.544;10.226;2023-06-24T02:53:57;12.03;;;10.93;;
4724;SDS011;2376;53.544;10.226;2023-06-24T02:56:26;12.67;;;11.33;;
4724;SDS011;2376;53.544;10.226;2023-06-24T02:58:53;11.50;;;10.27;;
4724;SDS011;2376;53.544;10.226;2023-06-24T03:04:03;10.60;;;9.67;;
4724;SDS011;2376;53.544;10.226;2023-06-24T03:06:31;13.07;;;10.80;;
4724;SDS011;2376;53.544;10.226;2023-06-24T03:08:58;12.90;;;11.70;;
4724;SDS011;2376;53.544;10.226;2023-06-24T03:11:26;12.20;;;11.10;;
4724;SDS011;2376;53.544;10.226;2023-06-24T03:13:53;12.00;;;10.83;;
4724;SDS011;2376;53.544;10.226;2023-06-24T03:16:20;11.87;;;10.80;;
4724;SDS011;2376;53.544;10.226;2023-06-24T03:18:47;11.20;;;10.20;;
4724;SDS011;2376;53.544;10.226;2023-06-24T03:21:14;11.33;;;10.27;;
4724;SDS011;2376;53.544;10.226;2023-06-24T03:23:41;18.13;;;10.20;;
4724;SDS011;2376;53.544;10.226;2023-06-24T03:26:08;10.70;;;9.80;;
4724;SDS011;2376;53.544;10.226;2023-06-24T03:28:36;14.43;;;10.50;;
4724;SDS011;2376;53.544;10.226;2023-06-24T03:31:03;12.87;;;11.77;;
4724;SDS011;2376;53.544;10.226;2023-06-24T03:33:30;11.30;;;10.20;;
4724;SDS011;2376;53.544;10.226;2023-06-24T03:35:56;11.43;;;10.43;;
4724;SDS011;2376;53.544;10.226;2023-06-24T03:38:23;12.07;;;9.90;;
4724;SDS011;2376;53.544;10.226;2023-06-24T03:40:50;14.10;;;10.70;;
4724;SDS011;2376;53.544;10.226;2023-06-24T03:43:17;12.07;;;10.83;;
4724;SDS011;2376;53.544;10.226;2023-06-24T03:45:45;10.43;;;9.53;;
4724;SDS011;2376;53.544;10.226;2023-06-24T03:48:12;13.10;;;11.83;;
4724;SDS011;2376;53.544;10.226;2023-06-24T03:50:39;11.23;;;10.20;;
4724;SDS011;2376;53.544;10.226;2023-06-24T03:53:06;12.80;;;11.60;;
4724;SDS011;2376;53.544;10.226;2023-06-24T03:55:33;11.80;;;10.60;;
4724;SDS011;2376;53.544;10.226;2023-06-24T03:57:59;11.40;;;10.40;;
4724;SDS011;2376;53.544;10.226;2023-06-24T04:00:26;12.30;;;11.00;;
4724;SDS011;2376;53.544;10.226;2023-06-24T04:02:54;11.80;;;10.77;;
4724;SDS011;2376;53.544;10.226;2023-06-24T04:05:22;18.73;;;9.97;;
4724;SDS011;2376;53.544;10.226;2023-06-24T04:07:50;11.60;;;10.50;;
4724;SDS011;2376;53.544;10.226;2023-06-24T04:10:18;13.33;;;10.10;;
4724;SDS011;2376;53.544;10.226;2023-06-24T04:12:45;17.33;;;11.20;;
4724;SDS011;2376;53.544;10.226;2023-06-24T04:15:12;16.40;;;11.17;;
4724;SDS011;2376;53.544;10.226;2023-06-24T04:17:38;11.70;;;10.60;;
4724;SDS011;2376;53.544;10.226;2023-06-24T04:20:07;11.77;;;10.67;;
4724;SDS011;2376;53.544;10.226;2023-06-24T04:22:34;11.37;;;10.37;;
4724;SDS011;2376;53.544;10.226;2023-06-24T04:25:02;15.00;;;11.40;;
4724;SDS011;2376;53.544;10.226;2023-06-24T04:27:31;16.43;;;11.13;;
4724;SDS011;2376;53.544;10.226;2023-06-24T04:29:57;12.03;;;10.43;;
4724;SDS011;2376;53.544;10.226;2023-06-24T04:32:24;12.60;;;11.30;;
4724;SDS011;2376;53.544;10.226;2023-06-24T04:34:51;11.30;;;10.20;;
4724;SDS011;2376;53.544;10.226;2023-06-24T04:37:19;16.47;;;10.93;;
4724;SDS011;2376;53.544;10.226;2023-06-24T04:39:46;11.97;;;10.87;;
4724;SDS011;2376;53.544;10.226;2023-06-24T04:42:14;11.47;;;10.37;;
4724;SDS011;2376;53.544;10.226;2023-06-24T04:44:40;14.40;;;9.60;;
4724;SDS011;2376;53.544;10.226;2023-06-24T04:47:07;14.10;;;11.50;;
4724;SDS011;2376;53.544;10.226;2023-06-24T04:49:34;13.73;;;10.57;;
4724;SDS011;2376;53.544;10.226;2023-06-24T04:52:01;11.20;;;9.90;;
4724;SDS011;2376;53.544;10.226;2023-06-24T04:54:29;10.70;;;9.57;;
4724;SDS011;2376;53.544;10.226;2023-06-24T04:56:56;11.50;;;10.30;;
4724;SDS011;2376;53.544;10.226;2023-06-24T04:59:23;11.03;;;9.50;;
4724;SDS011;2376;53.544;10.226;2023-06-24T05:01:49;12.10;;;9.33;;
4724;SDS011;2376;53.544;10.226;2023-06-24T05:04:16;10.10;;;9.10;;
4724;SDS011;2376;53.544;10.226;2023-06-24T05:06:43;10.83;;;9.83;;
4724;SDS011;2376;53.544;10.226;2023-06-24T05:09:10;10.43;;;9.33;;
4724;SDS011;2376;53.544;10.226;2023-06-24T05:11:40;10.83;;;9.80;;
4724;SDS011;2376;53.544;10.226;2023-06-24T05:14:06;10.73;;;9.73;;
4724;SDS011;2376;53.544;10.226;2023-06-24T05:16:33;8.10;;;7.43;;
4724;SDS011;2376;53.544;10.226;2023-06-24T05:19:00;10.03;;;8.93;;
4724;SDS011;2376;53.544;10.226;2023-06-24T05:21:27;8.30;;;7.23;;
4724;SDS011;2376;53.544;10.226;2023-06-24T05:23:54;13.00;;;7.27;;
4724;SDS011;2376;53.544;10.226;2023-06-24T05:26:20;11.00;;;6.70;;
4724;SDS011;2376;53.544;10.226;2023-06-24T05:28:48;7.00;;;6.50;;
4724;SDS011;2376;53.544;10.226;2023-06-24T05:31:15;7.87;;;6.20;;
4724;SDS011;2376;53.544;10.226;2023-06-24T05:33:43;7.03;;;6.53;;
4724;SDS011;2376;53.544;10.226;2023-06-24T05:36:10;10.17;;;6.97;;
4724;SDS011;2376;53.544;10.226;2023-06-24T05:38:37;6.90;;;6.30;;
4724;SDS011;2376;53.544;10.226;2023-06-24T05:41:03;10.17;;;6.80;;
4724;SDS011;2376;53.544;10.226;2023-06-24T05:43:30;7.83;;;7.03;;
4724;SDS011;2376;53.544;10.226;2023-06-24T05:45:58;9.17;;;6.33;;
4724;SDS011;2376;53.544;10.226;2023-06-24T05:48:25;6.77;;;6.17;;
4724;SDS011;2376;53.544;10.226;2023-06-24T05:50:52;7.30;;;6.70;;
4724;SDS011;2376;53.544;10.226;2023-06-24T05:53:19;11.20;;;6.00;;
4724;SDS011;2376;53.544;10.226;2023-06-24T05:55:45;6.83;;;6.03;;
4724;SDS011;2376;53.544;10.226;2023-06-24T05:58:13;7.10;;;6.47;;
4724;SDS011;2376;53.544;10.226;2023-06-24T06:00:40;7.80;;;6.20;;
4724;SDS011;2376;53.544;10.226;2023-06-24T06:03:08;9.30;;;6.03;;
4724;SDS011;2376;53.544;10.226;2023-06-24T06:05:35;5.80;;;5.40;;
4724;SDS011;2376;53.544;10.226;2023-06-24T06:08:02;6.27;;;5.63;;
4724;SDS011;2376;53.544;10.226;2023-06-24T06:10:29;7.03;;;6.27;;
4724;SDS011;2376;53.544;10.226;2023-06-24T06:12:56;5.27;;;4.87;;
4724;SDS011;2376;53.544;10.226;2023-06-24T06:15:23;5.00;;;4.67;;
4724;SDS011;2376;53.544;10.226;2023-06-24T06:17:50;5.47;;;5.03;;
4724;SDS011;2376;53.544;10.226;2023-06-24T06:20:19;7.60;;;5.57;;
4724;SDS011;2376;53.544;10.226;2023-06-24T06:22:46;6.50;;;5.90;;
4724;SDS011;2376;53.544;10.226;2023-06-24T06:25:13;7.93;;;5.10;;
4724;SDS011;2376;53.544;10.226;2023-06-24T06:27:39;5.67;;;5.10;;
4724;SDS011;2376;53.544;10.226;2023-06-24T06:30:07;6.30;;;4.97;;
4724;SDS011;2376;53.544;10.226;2023-06-24T06:32:34;6.97;;;4.50;;
4724;SDS011;2376;53.544;10.226;2023-06-24T06:35:00;8.17;;;4.87;;
4724;SDS011;2376;53.544;10.226;2023-06-24T06:37:28;6.37;;;5.63;;
4724;SDS011;2376;53.544;10.226;2023-06-24T06:39:55;5.03;;;4.63;;
4724;SDS011;2376;53.544;10.226;2023-06-24T06:42:22;5.63;;;4.30;;
4724;SDS011;2376;53.544;10.226;2023-06-24T06:44:49;5.20;;;4.77;;
4724;SDS011;2376;53.544;10.226;2023-06-24T06:47:15;5.03;;;4.73;;
4724;SDS011;2376;53.544;10.226;2023-06-24T06:49:42;5.30;;;4.80;;
4724;SDS011;2376;53.544;10.226;2023-06-24T06:52:09;4.13;;;3.90;;
4724;SDS011;2376;53.544;10.226;2023-06-24T06:54:37;6.43;;;4.40;;
4724;SDS011;2376;53.544;10.226;2023-06-24T06:57:04;5.20;;;4.80;;
4724;SDS011;2376;53.544;10.226;2023-06-24T06:59:31;5.17;;;4.77;;
4724;SDS011;2376;53.544;10.226;2023-06-24T07:01:58;6.23;;;4.70;;
4724;SDS011;2376;53.544;10.226;2023-06-24T07:04:25;6.37;;;5.33;;
4724;SDS011;2376;53.544;10.226;2023-06-24T07:06:52;4.83;;;4.40;;
4724;SDS011;2376;53.544;10.226;2023-06-24T07:09:19;5.57;;;5.00;;
4724;SDS011;2376;53.544;10.226;2023-06-24T07:11:47;7.13;;;4.30;;
4724;SDS011;2376;53.544;10.226;2023-06-24T07:14:14;4.87;;;4.47;;
4724;SDS011;2376;53.544;10.226;2023-06-24T07:16:40;5.00;;;4.60;;
4724;SDS011;2376;53.544;10.226;2023-06-24T07:19:07;6.80;;;4.50;;
4724;SDS011;2376;53.544;10.226;2023-06-24T07:21:34;5.87;;;4.73;;
4724;SDS011;2376;53.544;10.226;2023-06-24T07:24:00;6.40;;;5.33;;
4724;SDS011;2376;53.544;10.226;2023-06-24T07:26:27;5.23;;;4.83;;
4724;SDS011;2376;53.544;10.226;2023-06-24T07:28:57;5.37;;;4.87;;
4724;SDS011;2376;53.544;10.226;2023-06-24T07:31:24;5.53;;;5.13;;
4724;SDS011;2376;53.544;10.226;2023-06-24T07:33:51;4.90;;;4.60;;
4724;SDS011;2376;53.544;10.226;2023-06-24T07:36:17;4.60;;;4.20;;
4724;SDS011;2376;53.544;10.226;2023-06-24T07:38:44;4.60;;;4.20;;
4724;SDS011;2376;53.544;10.226;2023-06-24T07:41:11;5.33;;;5.00;;
4724;SDS011;2376;53.544;10.226;2023-06-24T07:43:38;5.37;;;4.70;;
4724;SDS011;2376;53.544;10.226;2023-06-24T07:46:06;5.83;;;5.30;;
4724;SDS011;2376;53.544;10.226;2023-06-24T07:48:33;5.80;;;4.47;;
4724;SDS011;2376;53.544;10.226;2023-06-24T07:51:00;4.73;;;4.53;;
4724;SDS011;2376;53.544;10.226;2023-06-24T07:53:27;6.90;;;4.57;;
4724;SDS011;2376;53.544;10.226;2023-06-24T07:55:53;4.33;;;4.03;;
4724;SDS011;2376;53.544;10.226;2023-06-24T07:58:20;4.20;;;3.80;;
4724;SDS011;2376;53.544;10.226;2023-06-24T08:00:47;4.67;;;4.23;;
4724;SDS011;2376;53.544;10.226;2023-06-24T08:03:15;5.13;;;4.50;;
4724;SDS011;2376;53.544;10.226;2023-06-24T08:05:41;6.20;;;4.77;;
4724;SDS011;2376;53.544;10.226;2023-06-24T08:08:08;4.40;;;4.07;;
4724;SDS011;2376;53.544;10.226;2023-06-24T08:10:35;4.50;;;4.20;;
4724;SDS011;2376;53.544;10.226;2023-06-24T08:13:02;4.33;;;4.00;;
4724;SDS011;2376;53.544;10.226;2023-06-24T08:15:29;4.67;;;4.37;;
4724;SDS011;2376;53.544;10.226;2023-06-24T08:17:56;6.03;;;5.20;;
4724;SDS011;2376;53.544;10.226;2023-06-24T08:20:24;4.23;;;3.93;;
4724;SDS011;2376;53.544;10.226;2023-06-24T08:22:51;5.17;;;4.80;;
4724;SDS011;2376;53.544;10.226;2023-06-24T08:25:17;5.03;;;4.63;;
4724;SDS011;2376;53.544;10.226;2023-06-24T08:27:44;4.60;;;4.30;;
4724;SDS011;2376;53.544;10.226;2023-06-24T08:30:12;5.27;;;4.83;;
4724;SDS011;2376;53.544;10.226;2023-06-24T08:32:39;4.87;;;4.27;;
4724;SDS011;2376;53.544;10.226;2023-06-24T08:35:06;7.23;;;4.60;;
4724;SDS011;2376;53.544;10.226;2023-06-24T08:37:35;5.17;;;4.73;;
4724;SDS011;2376;53.544;10.226;2023-06-24T08:40:02;5.90;;;4.70;;
4724;SDS011;2376;53.544;10.226;2023-06-24T08:42:30;4.93;;;4.50;;
4724;SDS011;2376;53.544;10.226;2023-06-24T08:44:57;5.33;;;4.77;;
4724;SDS011;2376;53.544;10.226;2023-06-24T08:47:24;5.67;;;5.27;;
4724;SDS011;2376;53.544;10.226;2023-06-24T08:49:55;5.17;;;4.73;;
4724;SDS011;2376;53.544;10.226;2023-06-24T08:52:30;4.93;;;4.40;;
4724;SDS011;2376;53.544;10.226;2023-06-24T08:54:59;4.50;;;4.30;;
4724;SDS011;2376;53.544;10.226;2023-06-24T08:57:27;4.47;;;4.17;;
4724;SDS011;2376;53.544;10.226;2023-06-24T08:59:53;5.00;;;4.60;;
4724;SDS011;2376;53.544;10.226;2023-06-24T09:02:20;4.90;;;4.50;;
4724;SDS011;2376;53.544;10.226;2023-06-24T09:04:47;5.60;;;5.10;;
4724;SDS011;2376;53.544;10.226;2023-06-24T09:07:23;5.70;;;5.30;;
4724;SDS011;2376;53.544;10.226;2023-06-24T09:09:52;5.67;;;5.17;;
4724;SDS011;2376;53.544;10.226;2023-06-24T09:12:20;5.60;;;5.20;;
4724;SDS011;2376;53.544;10.226;2023-06-24T09:14:47;4.93;;;4.53;;
4724;SDS011;2376;53.544;10.226;2023-06-24T09:17:15;5.37;;;4.97;;
4724;SDS011;2376;53.544;10.226;2023-06-24T09:19:42;6.50;;;5.83;;
4724;SDS011;2376;53.544;10.226;2023-06-24T09:22:09;7.50;;;5.77;;
4724;SDS011;2376;53.544;10.226;2023-06-24T09:24:41;5.40;;;5.00;;
4724;SDS011;2376;53.544;10.226;2023-06-24T09:27:10;5.20;;;4.80;;
4724;SDS011;2376;53.544;10.226;2023-06-24T09:29:40;6.33;;;4.63;;
4724;SDS011;2376;53.544;10.226;2023-06-24T09:32:08;6.20;;;5.03;;
4724;SDS011;2376;53.544;10.226;2023-06-24T09:34:36;5.80;;;5.40;;
4724;SDS011;2376;53.544;10.226;2023-06-24T09:37:03;8.47;;;5.27;;
4724;SDS011;2376;53.544;10.226;2023-06-24T09:39:34;5.87;;;5.40;;
4724;SDS011;2376;53.544;10.226;2023-06-24T09:42:03;6.13;;;4.90;;
4724;SDS011;2376;53.544;10.226;2023-06-24T09:44:31;7.20;;;5.43;;
4724;SDS011;2376;53.544;10.226;2023-06-24T09:46:59;5.40;;;4.57;;
4724;SDS011;2376;53.544;10.226;2023-06-24T09:49:26;12.10;;;5.00;;
4724;SDS011;2376;53.544;10.226;2023-06-24T09:51:54;5.00;;;4.70;;
4724;SDS011;2376;53.544;10.226;2023-06-24T09:54:22;5.57;;;4.67;;
4724;SDS011;2376;53.544;10.226;2023-06-24T09:56:52;6.30;;;4.30;;
4724;SDS011;2376;53.544;10.226;2023-06-24T09:59:20;5.63;;;5.13;;
4724;SDS011;2376;53.544;10.226;2023-06-24T10:01:48;4.73;;;4.43;;
4724;SDS011;2376;53.544;10.226;2023-06-24T10:04:17;4.20;;;3.93;;
4724;SDS011;2376;53.544;10.226;2023-06-24T10:06:45;5.03;;;3.90;;
4724;SDS011;2376;53.544;10.226;2023-06-24T10:09:12;7.27;;;3.53;;
4724;SDS011;2376;53.544;10.226;2023-06-24T10:11:42;5.40;;;5.10;;
4724;SDS011;2376;53.544;10.226;2023-06-24T10:14:09;4.30;;;3.90;;
4724;SDS011;2376;53.544;10.226;2023-06-24T10:16:36;6.80;;;3.70;;
4724;SDS011;2376;53.544;10.226;2023-06-24T10:19:03;4.00;;;3.70;;
4724;SDS011;2376;53.544;10.226;2023-06-24T10:24:27;5.20;;;4.70;;
4724;SDS011;2376;53.544;10.226;2023-06-24T10:26:57;4.50;;;4.10;;
4724;SDS011;2376;53.544;10.226;2023-06-24T10:29:31;7.30;;;4.80;;
4724;SDS011;2376;53.544;10.226;2023-06-24T10:32:02;4.83;;;4.53;;
4724;SDS011;2376;53.544;10.226;2023-06-24T10:34:31;4.73;;;4.40;;
4724;SDS011;2376;53.544;10.226;2023-06-24T10:37:01;5.27;;;4.87;;
4724;SDS011;2376;53.544;10.226;2023-06-24T10:39:35;4.33;;;4.03;;
4724;SDS011;2376;53.544;10.226;2023-06-24T10:42:25;8.20;;;5.00;;
4724;SDS011;2376;53.544;10.226;2023-06-24T10:44:53;5.00;;;4.70;;
4724;SDS011;2376;53.544;10.226;2023-06-24T10:47:21;5.50;;;5.00;;
4724;SDS011;2376;53.544;10.226;2023-06-24T10:49:49;5.10;;;4.60;;
4724;SDS011;2376;53.544;10.226;2023-06-24T10:52:18;6.73;;;5.17;;
4724;SDS011;2376;53.544;10.226;2023-06-24T10:54:45;8.27;;;5.00;;
4724;SDS011;2376;53.544;10.226;2023-06-24T10:57:12;4.93;;;4.63;;
4724;SDS011;2376;53.544;10.226;2023-06-24T10:59:39;6.10;;;4.67;;
4724;SDS011;2376;53.544;10.226;2023-06-24T11:02:07;4.07;;;3.70;;
4724;SDS011;2376;53.544;10.226;2023-06-24T11:04:42;4.90;;;4.50;;
4724;SDS011;2376;53.544;10.226;2023-06-24T11:07:09;4.30;;;4.00;;
4724;SDS011;2376;53.544;10.226;2023-06-24T11:09:37;4.47;;;4.17;;
4724;SDS011;2376;53.544;10.226;2023-06-24T11:12:06;4.80;;;4.40;;
4724;SDS011;2376;53.544;10.226;2023-06-24T11:14:35;5.40;;;5.00;;
4724;SDS011;2376;53.544;10.226;2023-06-24T11:17:02;5.20;;;4.43;;
4724;SDS011;2376;53.544;10.226;2023-06-24T11:19:29;5.07;;;4.60;;
4724;SDS011;2376;53.544;10.226;2023-06-24T11:21:58;5.80;;;4.67;;
4724;SDS011;2376;53.544;10.226;2023-06-24T11:24:26;4.30;;;4.00;;
4724;SDS011;2376;53.544;10.226;2023-06-24T11:26:54;5.07;;;4.67;;
4724;SDS011;2376;53.544;10.226;2023-06-24T11:29:21;3.97;;;3.60;;
4724;SDS011;2376;53.544;10.226;2023-06-24T11:31:48;4.13;;;3.70;;
4724;SDS011;2376;53.544;10.226;2023-06-24T11:34:15;4.77;;;4.37;;
4724;SDS011;2376;53.544;10.226;2023-06-24T11:36:42;4.83;;;4.43;;
4724;SDS011;2376;53.544;10.226;2023-06-24T11:39:19;3.73;;;3.40;;
4724;SDS011;2376;53.544;10.226;2023-06-24T11:41:48;4.23;;;3.43;;
4724;SDS011;2376;53.544;10.226;2023-06-24T11:44:16;4.50;;;4.10;;
4724;SDS011;2376;53.544;10.226;2023-06-24T11:46:43;4.90;;;4.50;;
4724;SDS011;2376;53.544;10.226;2023-06-24T11:49:10;4.43;;;4.03;;
4724;SDS011;2376;53.544;10.226;2023-06-24T11:51:37;3.60;;;3.40;;
4724;SDS011;2376;53.544;10.226;2023-06-24T11:54:13;4.00;;;3.70;;
4724;SDS011;2376;53.544;10.226;2023-06-24T11:56:42;5.23;;;4.73;;
4724;SDS011;2376;53.544;10.226;2023-06-24T11:59:16;4.67;;;4.10;;
4724;SDS011;2376;53.544;10.226;2023-06-24T12:01:44;5.50;;;4.70;;
4724;SDS011;2376;53.544;10.226;2023-06-24T12:04:11;4.97;;;4.57;;
4724;SDS011;2376;53.544;10.226;2023-06-24T12:06:39;5.70;;;5.20;;
4724;SDS011;2376;53.544;10.226;2023-06-24T12:09:06;4.43;;;4.03;;
4724;SDS011;2376;53.544;10.226;2023-06-24T12:11:33;3.70;;;3.50;;
4724;SDS011;2376;53.544;10.226;2023-06-24T12:14:00;4.10;;;3.83;;
4724;SDS011;2376;53.544;10.226;2023-06-24T12:16:28;4.47;;;4.17;;
4724;SDS011;2376;53.544;10.226;2023-06-24T12:18:55;4.93;;;4.50;;
4724;SDS011;2376;53.544;10.226;2023-06-24T12:21:22;5.33;;;4.93;;
4724;SDS011;2376;53.544;10.226;2023-06-24T12:23:49;5.10;;;4.77;;
4724;SDS011;2376;53.544;10.226;2023-06-24T12:26:15;4.70;;;4.40;;
4724;SDS011;2376;53.544;10.226;2023-06-24T12:28:43;5.13;;;4.83;;
4724;SDS011;2376;53.544;10.226;2023-06-24T12:31:10;4.53;;;4.23;;
4724;SDS011;2376;53.544;10.226;2023-06-24T12:33:38;5.20;;;4.70;;
4724;SDS011;2376;53.544;10.226;2023-06-24T12:36:05;4.47;;;4.17;;
4724;SDS011;2376;53.544;10.226;2023-06-24T12:38:32;5.10;;;4.67;;
4724;SDS011;2376;53.544;10.226;2023-06-24T12:41:00;3.67;;;3.47;;
4724;SDS011;2376;53.544;10.226;2023-06-24T12:43:27;4.07;;;3.87;;
4724;SDS011;2376;53.544;10.226;2023-06-24T12:45:54;4.70;;;4.40;;
4724;SDS011;2376;53.544;10.226;2023-06-24T12:48:21;5.13;;;4.83;;
4724;SDS011;2376;53.544;10.226;2023-06-24T12:50:49;5.87;;;4.20;;
4724;SDS011;2376;53.544;10.226;2023-06-24T12:53:18;4.80;;;4.40;;
4724;SDS011;2376;53.544;10.226;2023-06-24T12:55:45;3.90;;;3.60;;
4724;SDS011;2376;53.544;10.226;2023-06-24T12:58:12;4.07;;;3.77;;
4724;SDS011;2376;53.544;10.226;2023-06-24T13:00:39;4.70;;;4.40;;
4724;SDS011;2376;53.544;10.226;2023-06-24T13:03:06;5.07;;;4.70;;
4724;SDS011;2376;53.544;10.226;2023-06-24T13:05:33;4.47;;;4.17;;
4724;SDS011;2376;53.544;10.226;2023-06-24T13:08:01;5.30;;;3.87;;
4724;SDS011;2376;53.544;10.226;2023-06-24T13:10:28;4.40;;;4.10;;
4724;SDS011;2376;53.544;10.226;2023-06-24T13:12:54;5.00;;;4.60;;
4724;SDS011;2376;53.544;10.226;2023-06-24T13:15:21;4.50;;;3.93;;
4724;SDS011;2376;53.544;10.226;2023-06-24T13:17:49;5.20;;;4.80;;
4724;SDS011;2376;53.544;10.226;2023-06-24T13:20:15;4.37;;;3.97;;
4724;SDS011;2376;53.544;10.226;2023-06-24T13:22:42;4.53;;;4.33;;
4724;SDS011;2376;53.544;10.226;2023-06-24T13:25:10;5.37;;;5.07;;
4724;SDS011;2376;53.544;10.226;2023-06-24T13:27:37;3.87;;;3.67;;
4724;SDS011;2376;53.544;10.226;2023-06-24T13:30:04;10.90;;;4.27;;
4724;SDS011;2376;53.544;10.226;2023-06-24T13:32:32;3.87;;;3.67;;
4724;SDS011;2376;53.544;10.226;2023-06-24T13:34:59;4.37;;;4.07;;
4724;SDS011;2376;53.544;10.226;2023-06-24T13:37:25;6.00;;;4.53;;
4724;SDS011;2376;53.544;10.226;2023-06-24T13:39:52;4.37;;;3.80;;
4724;SDS011;2376;53.544;10.226;2023-06-24T13:42:20;4.80;;;4.33;;
4724;SDS011;2376;53.544;10.226;2023-06-24T13:44:47;4.40;;;4.00;;
4724;SDS011;2376;53.544;10.226;2023-06-24T13:47:14;4.20;;;4.00;;
4724;SDS011;2376;53.544;10.226;2023-06-24T13:49:41;6.50;;;4.00;;
4724;SDS011;2376;53.544;10.226;2023-06-24T13:52:07;4.67;;;4.27;;
4724;SDS011;2376;53.544;10.226;2023-06-24T13:54:34;5.00;;;4.60;;
4724;SDS011;2376;53.544;10.226;2023-06-24T13:57:01;4.37;;;3.97;;
4724;SDS011;2376;53.544;10.226;2023-06-24T13:59:29;4.17;;;3.80;;
4724;SDS011;2376;53.544;10.226;2023-06-24T14:01:57;4.00;;;3.80;;
4724;SDS011;2376;53.544;10.226;2023-06-24T14:04:24;4.47;;;4.17;;
4724;SDS011;2376;53.544;10.226;2023-06-24T14:06:50;5.83;;;4.10;;
4724;SDS011;2376;53.544;10.226;2023-06-24T14:09:18;4.07;;;3.83;;
4724;SDS011;2376;53.544;10.226;2023-06-24T14:11:45;4.60;;;4.30;;
4724;SDS011;2376;53.544;10.226;2023-06-24T14:14:12;4.20;;;3.90;;
4724;SDS011;2376;53.544;10.226;2023-06-24T14:16:40;4.50;;;4.20;;
4724;SDS011;2376;53.544;10.226;2023-06-24T14:19:06;4.20;;;4.00;;
4724;SDS011;2376;53.544;10.226;2023-06-24T14:21:33;4.63;;;4.33;;
4724;SDS011;2376;53.544;10.226;2023-06-24T14:24:00;4.10;;;3.80;;
4724;SDS011;2376;53.544;10.226;2023-06-24T14:26:28;4.83;;;4.10;;
4724;SDS011;2376;53.544;10.226;2023-06-24T14:28:55;3.63;;;3.43;;
4724;SDS011;2376;53.544;10.226;2023-06-24T14:31:21;3.90;;;3.70;;
4724;SDS011;2376;53.544;10.226;2023-06-24T14:33:49;3.93;;;3.63;;
4724;SDS011;2376;53.544;10.226;2023-06-24T14:36:16;3.93;;;3.53;;
4724;SDS011;2376;53.544;10.226;2023-06-24T14:38:43;3.60;;;3.40;;
4724;SDS011;2376;53.544;10.226;2023-06-24T14:41:10;5.50;;;3.40;;
4724;SDS011;2376;53.544;10.226;2023-06-24T14:43:36;3.70;;;3.50;;
4724;SDS011;2376;53.544;10.226;2023-06-24T14:46:03;3.73;;;3.53;;
4724;SDS011;2376;53.544;10.226;2023-06-24T14:48:30;3.63;;;3.43;;
4724;SDS011;2376;53.544;10.226;2023-06-24T14:50:58;4.17;;;3.87;;
4724;SDS011;2376;53.544;10.226;2023-06-24T14:53:25;4.60;;;4.20;;
4724;SDS011;2376;53.544;10.226;2023-06-24T14:55:51;4.10;;;3.70;;
4724;SDS011;2376;53.544;10.226;2023-06-24T14:58:18;5.23;;;4.13;;
4724;SDS011;2376;53.544;10.226;2023-06-24T15:00:45;3.70;;;3.50;;
4724;SDS011;2376;53.544;10.226;2023-06-24T15:03:12;7.20;;;6.60;;
4724;SDS011;2376;53.544;10.226;2023-06-24T15:05:39;5.27;;;4.73;;